Pointe-Au-Pere, Canada
Current Conditions -  °F | °C
As of 4:00 PM on Friday 19 Dec 2014 (Local Time) from CYYY Reporting Station
Clear Clear  
Wind Chill: 17°   Ceiling: Unl
Heat Index: 27°   Visibility: 30mi
Dew Point: 14°   Wind: 10mph
Humidity: 59%   Direction: 340°NNW
Pressure: 30.01"   Gusts: 18mph
Location:  48.52°N, 68.47°W
Report Text: CYYY 192100Z 34009G16KT 30SM SKC M03/M10 A3001 RMK SLP166
Loading
Personal Weather Stations






























Interactive Weather Map New forecast layout! Learn more

10-Day Weather Forecast

Advertisements
Track Severe Weather on mobile